PWSweather.com
Personal Weather Stations
Station Observations
KE7PQK
Madrona , Everett, WA 98203

Madrona Everett, WA 98203

Lat: 47.960558, Lon: -122.245508

Elevation: 100

Station Type: Davis Vantage Pro2

High Low Average
Temperature 52.3°F11.3°C 43.0°F6.1°C 46.7°F8.2°C
Dew Point 43.9°F6.6°C 39.9°F4.4°C 41.5°F5.3°C
Winds 4.0 mph 6.4 kmh Calm Calm 1.0 mph S1.6 kmh S
Wind Gusts 6.0 mph9.7 kmh -- 1.0 mph1.6 kmh
Humidity 92% 64% 83%
Pressure 29.99 in1015.6 mb 29.88 in1011.9 mb -
Precipitation 0.18 in4.6 mm - -
Hour Temp Dew Point Humidity Winds Wind Gusts Pressure Precip Precip Rate Daily Precip Total
12:02 AM 44.2°F6.8°C 42.1°F5.6°C 92% Calm Calm -- 29.93 in1013.5 mb 0.05 in1.3 mm 1.50 in/hr38.1 mm/hr 0.14 in3.6 mm
12:07 AM 44.2°F6.8°C 42.1°F5.6°C 92% Calm Calm -- 29.93 in1013.5 mb 0.05 in1.3 mm 0.00 in/hr0.0 mm/hr 0.14 in3.6 mm
12:12 AM 44.4°F6.9°C 42.3°F5.7°C 92% Calm Calm -- 29.93 in1013.5 mb 0.04 in1.0 mm 0.00 in/hr0.0 mm/hr 0.14 in3.6 mm
12:17 AM 44.8°F7.1°C 42.6°F5.9°C 92% Calm Calm -- 29.93 in1013.5 mb 0.04 in1.0 mm 0.00 in/hr0.0 mm/hr 0.15 in3.8 mm
12:22 AM 44.8°F7.1°C 42.6°F5.9°C 92% Calm Calm 0.9 mph1.4 kmh 29.93 in1013.5 mb 0.04 in1.0 mm 0.00 in/hr0.0 mm/hr 0.15 in3.8 mm
12:27 AM 44.8°F7.1°C 42.6°F5.9°C 92% Calm Calm 2.9 mph4.7 kmh 29.93 in1013.5 mb 0.00 in0.0 mm 0.00 in/hr0.0 mm/hr 0.15 in3.8 mm
12:32 AM 44.8°F7.1°C 42.6°F5.9°C 92% 0.9 mph SE1.4 kmh SE 0.9 mph1.4 kmh 29.93 in1013.5 mb 0.00 in0.0 mm 0.00 in/hr0.0 mm/hr 0.15 in3.8 mm
12:37 AM 44.8°F7.1°C 42.6°F5.9°C 92% 0.9 mph SE1.4 kmh SE 2.0 mph3.2 kmh 29.93 in1013.5 mb 0.00 in0.0 mm 0.00 in/hr0.0 mm/hr 0.15 in3.8 mm
12:42 AM 44.4°F6.9°C 42.3°F5.7°C 92% 0.9 mph SE1.4 kmh SE 2.9 mph4.7 kmh 29.93 in1013.5 mb 0.00 in0.0 mm 0.00 in/hr0.0 mm/hr 0.15 in3.8 mm
12:47 AM 44.2°F6.8°C 42.1°F5.6°C 92% 0.9 mph SE1.4 kmh SE -- 29.93 in1013.5 mb 0.00 in0.0 mm 0.00 in/hr0.0 mm/hr 0.15 in3.8 mm
12:52 AM 44.1°F6.7°C 41.5°F5.3°C 91% 2.0 mph SE3.2 kmh SE 4.0 mph6.4 kmh 29.93 in1013.5 mb 0.00 in0.0 mm 0.00 in/hr0.0 mm/hr 0.15 in3.8 mm
12:57 AM 43.7°F6.5°C 41.2°F5.1°C 91% 2.0 mph SE3.2 kmh SE 2.9 mph4.7 kmh 29.93 in1013.5 mb 0.00 in0.0 mm 0.00 in/hr0.0 mm/hr 0.15 in3.8 mm
01:02 AM 43.5°F6.4°C 41.0°F5.0°C 91% 2.0 mph SE3.2 kmh SE 2.9 mph4.7 kmh 29.94 in1013.9 mb 0.00 in0.0 mm 0.00 in/hr0.0 mm/hr 0.15 in3.8 mm
01:07 AM 43.3°F6.3°C 40.8°F4.9°C 91% 2.0 mph SE3.2 kmh SE -- 29.93 in1013.5 mb 0.00 in0.0 mm 0.00 in/hr0.0 mm/hr 0.15 in3.8 mm
01:12 AM 43.3°F6.3°C 41.2°F5.1°C 92% 2.0 mph SE3.2 kmh SE 2.9 mph4.7 kmh 29.93 in1013.5 mb 0.00 in0.0 mm 0.00 in/hr0.0 mm/hr 0.15 in3.8 mm
01:17 AM 43.3°F6.3°C 41.2°F5.1°C 92% 2.0 mph SE3.2 kmh SE 2.9 mph4.7 kmh 29.94 in1013.9 mb 0.00 in0.0 mm 0.00 in/hr0.0 mm/hr 0.15 in3.8 mm
01:22 AM 43.3°F6.3°C 41.2°F5.1°C 92% 2.0 mph SE3.2 kmh SE 2.9 mph4.7 kmh 29.93 in1013.5 mb 0.00 in0.0 mm 0.00 in/hr0.0 mm/hr 0.15 in3.8 mm
01:27 AM 43.3°F6.3°C 40.8°F4.9°C 91% 2.9 mph SE4.7 kmh SE 2.0 mph3.2 kmh 29.93 in1013.5 mb 0.00 in0.0 mm 0.00 in/hr0.0 mm/hr 0.15 in3.8 mm
01:32 AM 43.3°F6.3°C 41.2°F5.1°C 92% 2.9 mph ESE4.7 kmh ESE 2.9 mph4.7 kmh 29.93 in1013.5 mb 0.00 in0.0 mm 0.00 in/hr0.0 mm/hr 0.15 in3.8 mm
01:37 AM 43.3°F6.3°C 41.2°F5.1°C 92% 2.9 mph SE4.7 kmh SE 2.0 mph3.2 kmh 29.93 in1013.5 mb 0.00 in0.0 mm 0.00 in/hr0.0 mm/hr 0.15 in3.8 mm
01:42 AM 43.2°F6.2°C 40.6°F4.8°C 91% 2.9 mph SE4.7 kmh SE 0.9 mph1.4 kmh 29.93 in1013.5 mb 0.00 in0.0 mm 0.00 in/hr0.0 mm/hr 0.15 in3.8 mm
01:47 AM 43.2°F6.2°C 40.6°F4.8°C 91% 2.0 mph SE3.2 kmh SE -- 29.94 in1013.9 mb 0.00 in0.0 mm 0.00 in/hr0.0 mm/hr 0.15 in3.8 mm
01:52 AM 43.2°F6.2°C 40.6°F4.8°C 91% 2.0 mph SE3.2 kmh SE 0.9 mph1.4 kmh 29.94 in1013.9 mb 0.00 in0.0 mm 0.00 in/hr0.0 mm/hr 0.15 in3.8 mm
01:57 AM 43.2°F6.2°C 40.6°F4.8°C 91% 2.0 mph SE3.2 kmh SE 2.9 mph4.7 kmh 29.94 in1013.9 mb 0.00 in0.0 mm 0.00 in/hr0.0 mm/hr 0.15 in3.8 mm
02:02 AM 43.0°F6.1°C 40.5°F4.7°C 91% 2.9 mph SE4.7 kmh SE 2.0 mph3.2 kmh 29.94 in1013.9 mb 0.00 in0.0 mm 0.00 in/hr0.0 mm/hr 0.15 in3.8 mm
02:07 AM 43.0°F6.1°C 40.5°F4.7°C 91% 2.9 mph SE4.7 kmh SE 2.9 mph4.7 kmh 29.94 in1013.9 mb 0.00 in0.0 mm 0.00 in/hr0.0 mm/hr 0.15 in3.8 mm
02:12 AM 43.0°F6.1°C 40.5°F4.7°C 91% 2.9 mph SE4.7 kmh SE 4.0 mph6.4 kmh 29.94 in1013.9 mb 0.00 in0.0 mm 0.00 in/hr0.0 mm/hr 0.15 in3.8 mm
02:17 AM 43.0°F6.1°C 40.5°F4.7°C 91% 2.9 mph SE4.7 kmh SE 2.0 mph3.2 kmh 29.94 in1013.9 mb 0.00 in0.0 mm 0.00 in/hr0.0 mm/hr 0.15 in3.8 mm
02:22 AM 43.0°F6.1°C 40.5°F4.7°C 91% 2.9 mph SE4.7 kmh SE -- 29.94 in1013.9 mb 0.00 in0.0 mm 0.00 in/hr0.0 mm/hr 0.15 in3.8 mm
02:27 AM 43.2°F6.2°C 40.6°F4.8°C 91% 2.0 mph SE3.2 kmh SE 0.9 mph1.4 kmh 29.94 in1013.9 mb 0.00 in0.0 mm 0.00 in/hr0.0 mm/hr 0.15 in3.8 mm
02:32 AM 43.2°F6.2°C 40.6°F4.8°C 91% 2.0 mph SE3.2 kmh SE 2.0 mph3.2 kmh 29.94 in1013.9 mb 0.00 in0.0 mm 0.00 in/hr0.0 mm/hr 0.15 in3.8 mm
02:37 AM 43.3°F6.3°C 40.8°F4.9°C 91% 2.0 mph SE3.2 kmh SE 2.0 mph3.2 kmh 29.94 in1013.9 mb 0.00 in0.0 mm 0.00 in/hr0.0 mm/hr 0.15 in3.8 mm
02:42 AM 43.3°F6.3°C 40.8°F4.9°C 91% 2.0 mph SE3.2 kmh SE 2.9 mph4.7 kmh 29.94 in1013.9 mb 0.00 in0.0 mm 0.00 in/hr0.0 mm/hr 0.15 in3.8 mm
02:47 AM 43.3°F6.3°C 40.8°F4.9°C 91% 2.0 mph SE3.2 kmh SE 4.0 mph6.4 kmh 29.94 in1013.9 mb 0.00 in0.0 mm 0.00 in/hr0.0 mm/hr 0.15 in3.8 mm
02:52 AM 43.2°F6.2°C 40.5°F4.7°C 90% 2.0 mph SE3.2 kmh SE 0.9 mph1.4 kmh 29.94 in1013.9 mb 0.00 in0.0 mm 0.00 in/hr0.0 mm/hr 0.15 in3.8 mm
02:57 AM 43.2°F6.2°C 40.5°F4.7°C 90% 2.0 mph SE3.2 kmh SE 0.9 mph1.4 kmh 29.94 in1013.9 mb 0.00 in0.0 mm 0.00 in/hr0.0 mm/hr 0.15 in3.8 mm
03:02 AM 43.3°F6.3°C 40.8°F4.9°C 91% 2.0 mph SE3.2 kmh SE -- 29.94 in1013.9 mb 0.00 in0.0 mm 0.00 in/hr0.0 mm/hr 0.15 in3.8 mm
03:07 AM 43.5°F6.4°C 40.8°F4.9°C 90% 0.9 mph SE1.4 kmh SE -- 29.94 in1013.9 mb 0.00 in0.0 mm 0.00 in/hr0.0 mm/hr 0.15 in3.8 mm
03:12 AM 43.9°F6.6°C 41.4°F5.2°C 91% 0.9 mph SE1.4 kmh SE -- 29.94 in1013.9 mb 0.00 in0.0 mm 0.00 in/hr0.0 mm/hr 0.15 in3.8 mm
03:17 AM 44.2°F6.8°C 41.7°F5.4°C 91% Calm Calm -- 29.94 in1013.9 mb 0.00 in0.0 mm 0.00 in/hr0.0 mm/hr 0.15 in3.8 mm
03:22 AM 44.4°F6.9°C 41.9°F5.5°C 91% Calm Calm -- 29.94 in1013.9 mb 0.00 in0.0 mm 0.00 in/hr0.0 mm/hr 0.15 in3.8 mm
03:27 AM 44.4°F6.9°C 41.9°F5.5°C 91% 0.9 mph SE1.4 kmh SE 0.9 mph1.4 kmh 29.94 in1013.9 mb 0.00 in0.0 mm 0.00 in/hr0.0 mm/hr 0.15 in3.8 mm
03:32 AM 44.2°F6.8°C 41.5°F5.3°C 90% 0.9 mph E1.4 kmh E -- 29.94 in1013.9 mb 0.00 in0.0 mm 0.00 in/hr0.0 mm/hr 0.15 in3.8 mm
03:37 AM 44.1°F6.7°C 41.4°F5.2°C 90% 0.9 mph E1.4 kmh E 2.0 mph3.2 kmh 29.94 in1013.9 mb 0.00 in0.0 mm 0.00 in/hr0.0 mm/hr 0.15 in3.8 mm
03:42 AM 44.2°F6.8°C 41.5°F5.3°C 90% 0.9 mph E1.4 kmh E 0.9 mph1.4 kmh 29.94 in1013.9 mb 0.00 in0.0 mm 0.00 in/hr0.0 mm/hr 0.15 in3.8 mm
03:47 AM 44.2°F6.8°C 41.5°F5.3°C 90% 0.9 mph E1.4 kmh E -- 29.95 in1014.2 mb 0.00 in0.0 mm 0.00 in/hr0.0 mm/hr 0.15 in3.8 mm
03:52 AM 44.2°F6.8°C 41.5°F5.3°C 90% 0.9 mph E1.4 kmh E 0.9 mph1.4 kmh 29.95 in1014.2 mb 0.00 in0.0 mm 0.00 in/hr0.0 mm/hr 0.15 in3.8 mm
03:57 AM 44.1°F6.7°C 41.0°F5.0°C 89% 0.9 mph SE1.4 kmh SE 4.0 mph6.4 kmh 29.95 in1014.2 mb 0.00 in0.0 mm 0.00 in/hr0.0 mm/hr 0.15 in3.8 mm
04:02 AM 43.5°F6.4°C 40.5°F4.7°C 89% 2.0 mph SE3.2 kmh SE 2.9 mph4.7 kmh 29.95 in1014.2 mb 0.00 in0.0 mm 0.00 in/hr0.0 mm/hr 0.15 in3.8 mm
04:07 AM 43.5°F6.4°C 40.5°F4.7°C 89% 2.0 mph SE3.2 kmh SE 2.9 mph4.7 kmh 29.95 in1014.2 mb 0.00 in0.0 mm 0.00 in/hr0.0 mm/hr 0.15 in3.8 mm
04:12 AM 43.7°F6.5°C 41.0°F5.0°C 90% 0.9 mph SE1.4 kmh SE -- 29.95 in1014.2 mb 0.00 in0.0 mm 0.00 in/hr0.0 mm/hr 0.15 in3.8 mm
04:17 AM 43.9°F6.6°C 40.8°F4.9°C 89% 0.9 mph ESE1.4 kmh ESE -- 29.95 in1014.2 mb 0.00 in0.0 mm 0.00 in/hr0.0 mm/hr 0.15 in3.8 mm
04:22 AM 43.9°F6.6°C 40.8°F4.9°C 89% 2.0 mph ESE3.2 kmh ESE 0.9 mph1.4 kmh 29.95 in1014.2 mb 0.00 in0.0 mm 0.00 in/hr0.0 mm/hr 0.15 in3.8 mm
04:27 AM 44.1°F6.7°C 41.4°F5.2°C 90% 0.9 mph ESE1.4 kmh ESE 2.0 mph3.2 kmh 29.95 in1014.2 mb 0.00 in0.0 mm 0.00 in/hr0.0 mm/hr 0.15 in3.8 mm
04:32 AM 44.1°F6.7°C 41.4°F5.2°C 90% 0.9 mph SE1.4 kmh SE 0.9 mph1.4 kmh 29.95 in1014.2 mb 0.00 in0.0 mm 0.00 in/hr0.0 mm/hr 0.15 in3.8 mm
04:37 AM 43.9°F6.6°C 40.8°F4.9°C 89% 0.9 mph SE1.4 kmh SE -- 29.95 in1014.2 mb 0.00 in0.0 mm 0.00 in/hr0.0 mm/hr 0.15 in3.8 mm
04:42 AM 44.1°F6.7°C 41.4°F5.2°C 90% 0.9 mph SE1.4 kmh SE -- 29.95 in1014.2 mb 0.00 in0.0 mm 0.00 in/hr0.0 mm/hr 0.15 in3.8 mm
04:47 AM 44.1°F6.7°C 41.4°F5.2°C 90% Calm Calm -- 29.95 in1014.2 mb 0.00 in0.0 mm 0.00 in/hr0.0 mm/hr 0.15 in3.8 mm
04:52 AM 44.1°F6.7°C 41.0°F5.0°C 89% Calm Calm -- 29.95 in1014.2 mb 0.00 in0.0 mm 0.00 in/hr0.0 mm/hr 0.15 in3.8 mm
04:57 AM 44.1°F6.7°C 41.4°F5.2°C 90% Calm Calm -- 29.95 in1014.2 mb 0.00 in0.0 mm 0.00 in/hr0.0 mm/hr 0.15 in3.8 mm
05:02 AM 43.9°F6.6°C 41.2°F5.1°C 90% Calm Calm -- 29.95 in1014.2 mb 0.00 in0.0 mm 0.00 in/hr0.0 mm/hr 0.16 in4.1 mm
05:07 AM 43.7°F6.5°C 41.0°F5.0°C 90% 0.9 mph SE1.4 kmh SE -- 29.95 in1014.2 mb 0.00 in0.0 mm 0.00 in/hr0.0 mm/hr 0.16 in4.1 mm
05:12 AM 43.5°F6.4°C 40.8°F4.9°C 90% 2.0 mph SE3.2 kmh SE 2.9 mph4.7 kmh 29.96 in1014.6 mb 0.04 in1.0 mm 0.48 in/hr12.2 mm/hr 0.16 in4.1 mm
05:17 AM 43.3°F6.3°C 40.6°F4.8°C 90% 2.0 mph SE3.2 kmh SE 2.0 mph3.2 kmh 29.96 in1014.6 mb 0.04 in1.0 mm 0.00 in/hr0.0 mm/hr 0.17 in4.3 mm
05:22 AM 43.3°F6.3°C 40.6°F4.8°C 90% 2.0 mph SE3.2 kmh SE 2.0 mph3.2 kmh 29.96 in1014.6 mb 0.04 in1.0 mm 0.00 in/hr0.0 mm/hr 0.17 in4.3 mm
05:27 AM 43.5°F6.4°C 41.0°F5.0°C 91% 2.0 mph SE3.2 kmh SE 2.0 mph3.2 kmh 29.96 in1014.6 mb 0.04 in1.0 mm 0.00 in/hr0.0 mm/hr 0.17 in4.3 mm
05:32 AM 43.5°F6.4°C 41.0°F5.0°C 91% 2.0 mph SE3.2 kmh SE -- 29.96 in1014.6 mb 0.00 in0.0 mm 0.00 in/hr0.0 mm/hr 0.17 in4.3 mm
05:37 AM 43.3°F6.3°C 40.6°F4.8°C 90% 2.0 mph SE3.2 kmh SE 2.9 mph4.7 kmh 29.96 in1014.6 mb 0.00 in0.0 mm 0.00 in/hr0.0 mm/hr 0.17 in4.3 mm
05:42 AM 43.2°F6.2°C 40.5°F4.7°C 90% 2.9 mph SE4.7 kmh SE 2.0 mph3.2 kmh 29.95 in1014.2 mb 0.00 in0.0 mm 0.00 in/hr0.0 mm/hr 0.17 in4.3 mm
05:47 AM 43.3°F6.3°C 40.8°F4.9°C 91% 2.0 mph SE3.2 kmh SE 4.0 mph6.4 kmh 29.95 in1014.2 mb 0.00 in0.0 mm 0.00 in/hr0.0 mm/hr 0.17 in4.3 mm
05:52 AM 43.3°F6.3°C 40.6°F4.8°C 90% 2.0 mph SE3.2 kmh SE 2.9 mph4.7 kmh 29.96 in1014.6 mb 0.00 in0.0 mm 0.00 in/hr0.0 mm/hr 0.17 in4.3 mm
05:57 AM 43.2°F6.2°C 40.5°F4.7°C 90% 2.0 mph ESE3.2 kmh ESE -- 29.96 in1014.6 mb 0.00 in0.0 mm 0.00 in/hr0.0 mm/hr 0.17 in4.3 mm
06:02 AM 43.3°F6.3°C 40.8°F4.9°C 91% 2.0 mph SE3.2 kmh SE 0.9 mph1.4 kmh 29.96 in1014.6 mb 0.00 in0.0 mm 0.00 in/hr0.0 mm/hr 0.17 in4.3 mm
06:07 AM 43.3°F6.3°C 40.8°F4.9°C 91% 2.0 mph ESE3.2 kmh ESE 2.0 mph3.2 kmh 29.96 in1014.6 mb 0.00 in0.0 mm 0.00 in/hr0.0 mm/hr 0.17 in4.3 mm
06:12 AM 43.2°F6.2°C 40.5°F4.7°C 90% 2.0 mph ESE3.2 kmh ESE -- 29.96 in1014.6 mb 0.00 in0.0 mm 0.00 in/hr0.0 mm/hr 0.17 in4.3 mm
06:17 AM 43.3°F6.3°C 40.8°F4.9°C 91% 2.0 mph ESE3.2 kmh ESE 2.0 mph3.2 kmh 29.96 in1014.6 mb 0.00 in0.0 mm 0.00 in/hr0.0 mm/hr 0.17 in4.3 mm
06:22 AM 43.5°F6.4°C 41.0°F5.0°C 91% 0.9 mph ESE1.4 kmh ESE 2.0 mph3.2 kmh 29.96 in1014.6 mb 0.00 in0.0 mm 0.00 in/hr0.0 mm/hr 0.17 in4.3 mm
06:27 AM 43.7°F6.5°C 41.2°F5.1°C 91% 0.9 mph ESE1.4 kmh ESE 2.9 mph4.7 kmh 29.96 in1014.6 mb 0.00 in0.0 mm 0.00 in/hr0.0 mm/hr 0.17 in4.3 mm
06:32 AM 44.1°F6.7°C 41.5°F5.3°C 91% 0.9 mph ESE1.4 kmh ESE 0.9 mph1.4 kmh 29.96 in1014.6 mb 0.00 in0.0 mm 0.00 in/hr0.0 mm/hr 0.17 in4.3 mm
06:37 AM 44.1°F6.7°C 41.5°F5.3°C 91% 0.9 mph ESE1.4 kmh ESE -- 29.96 in1014.6 mb 0.00 in0.0 mm 0.00 in/hr0.0 mm/hr 0.17 in4.3 mm
06:42 AM 44.1°F6.7°C 41.5°F5.3°C 91% 0.9 mph ESE1.4 kmh ESE -- 29.96 in1014.6 mb 0.00 in0.0 mm 0.00 in/hr0.0 mm/hr 0.17 in4.3 mm
06:47 AM 44.1°F6.7°C 41.4°F5.2°C 90% 0.9 mph SSE1.4 kmh SSE 2.0 mph3.2 kmh 29.96 in1014.6 mb 0.00 in0.0 mm 0.00 in/hr0.0 mm/hr 0.18 in4.6 mm
06:52 AM 43.9°F6.6°C 41.2°F5.1°C 90% 0.9 mph SE1.4 kmh SE -- 29.96 in1014.6 mb 0.00 in0.0 mm 0.00 in/hr0.0 mm/hr 0.18 in4.6 mm
06:57 AM 43.9°F6.6°C 41.2°F5.1°C 90% Calm Calm -- 29.97 in1014.9 mb 0.00 in0.0 mm 0.00 in/hr0.0 mm/hr 0.18 in4.6 mm
07:02 AM 43.9°F6.6°C 41.2°F5.1°C 90% 0.9 mph SE1.4 kmh SE 2.0 mph3.2 kmh 29.97 in1014.9 mb 0.00 in0.0 mm 0.00 in/hr0.0 mm/hr 0.18 in4.6 mm
07:07 AM 43.9°F6.6°C 41.4°F5.2°C 91% 0.9 mph SE1.4 kmh SE -- 29.97 in1014.9 mb 0.00 in0.0 mm 0.00 in/hr0.0 mm/hr 0.18 in4.6 mm
07:12 AM 43.9°F6.6°C 41.2°F5.1°C 90% Calm Calm 0.9 mph1.4 kmh 29.97 in1014.9 mb 0.00 in0.0 mm 0.00 in/hr0.0 mm/hr 0.18 in4.6 mm
07:17 AM 44.1°F6.7°C 41.5°F5.3°C 91% Calm Calm -- 29.97 in1014.9 mb 0.00 in0.0 mm 0.00 in/hr0.0 mm/hr 0.18 in4.6 mm
07:22 AM 44.1°F6.7°C 41.5°F5.3°C 91% Calm Calm -- 29.97 in1014.9 mb 0.00 in0.0 mm 0.00 in/hr0.0 mm/hr 0.18 in4.6 mm
07:27 AM 44.2°F6.8°C 41.7°F5.4°C 91% Calm Calm -- 29.97 in1014.9 mb 0.00 in0.0 mm 0.00 in/hr0.0 mm/hr 0.18 in4.6 mm
07:32 AM 44.2°F6.8°C 41.5°F5.3°C 90% Calm Calm -- 29.98 in1015.2 mb 0.00 in0.0 mm 0.00 in/hr0.0 mm/hr 0.18 in4.6 mm
07:37 AM 44.2°F6.8°C 41.7°F5.4°C 91% Calm Calm -- 29.98 in1015.2 mb 0.00 in0.0 mm 0.00 in/hr0.0 mm/hr 0.18 in4.6 mm
07:42 AM 44.4°F6.9°C 41.9°F5.5°C 91% Calm Calm -- 29.98 in1015.2 mb 0.00 in0.0 mm 0.00 in/hr0.0 mm/hr 0.18 in4.6 mm
07:47 AM 44.4°F6.9°C 41.9°F5.5°C 91% Calm Calm -- 29.98 in1015.2 mb 0.00 in0.0 mm 0.00 in/hr0.0 mm/hr 0.18 in4.6 mm
07:52 AM 44.4°F6.9°C 41.9°F5.5°C 91% 0.9 mph SE1.4 kmh SE -- 29.98 in1015.2 mb 0.00 in0.0 mm 0.00 in/hr0.0 mm/hr 0.18 in4.6 mm
07:57 AM 44.6°F7.0°C 42.1°F5.6°C 91% 0.9 mph E1.4 kmh E -- 29.98 in1015.2 mb 0.00 in0.0 mm 0.00 in/hr0.0 mm/hr 0.18 in4.6 mm
08:02 AM 44.8°F7.1°C 42.3°F5.7°C 91% 0.9 mph SE1.4 kmh SE -- 29.98 in1015.2 mb 0.00 in0.0 mm 0.00 in/hr0.0 mm/hr 0.18 in4.6 mm
08:07 AM 44.8°F7.1°C 42.3°F5.7°C 91% 0.9 mph ESE1.4 kmh ESE -- 29.98 in1015.2 mb 0.00 in0.0 mm 0.00 in/hr0.0 mm/hr 0.18 in4.6 mm
08:12 AM 45.0°F7.2°C 42.3°F5.7°C 90% 0.9 mph ESE1.4 kmh ESE 2.9 mph4.7 kmh 29.98 in1015.2 mb 0.00 in0.0 mm 0.00 in/hr0.0 mm/hr 0.18 in4.6 mm
08:17 AM 45.0°F7.2°C 42.3°F5.7°C 90% 0.9 mph SE1.4 kmh SE 0.9 mph1.4 kmh 29.99 in1015.6 mb 0.00 in0.0 mm 0.00 in/hr0.0 mm/hr 0.18 in4.6 mm
08:22 AM 45.1°F7.3°C 42.4°F5.8°C 90% 0.9 mph ESE1.4 kmh ESE -- 29.98 in1015.2 mb 0.00 in0.0 mm 0.00 in/hr0.0 mm/hr 0.18 in4.6 mm
08:27 AM 45.3°F7.4°C 42.6°F5.9°C 90% Calm Calm -- 29.99 in1015.6 mb 0.00 in0.0 mm 0.00 in/hr0.0 mm/hr 0.18 in4.6 mm
08:32 AM 45.5°F7.5°C 42.8°F6.0°C 90% Calm Calm -- 29.98 in1015.2 mb 0.00 in0.0 mm 0.00 in/hr0.0 mm/hr 0.18 in4.6 mm
08:37 AM 45.3°F7.4°C 41.9°F5.5°C 88% 0.9 mph SE1.4 kmh SE 0.9 mph1.4 kmh 29.98 in1015.2 mb 0.00 in0.0 mm 0.00 in/hr0.0 mm/hr 0.18 in4.6 mm
08:42 AM 45.1°F7.3°C 41.7°F5.4°C 88% 0.9 mph SE1.4 kmh SE -- 29.98 in1015.2 mb 0.00 in0.0 mm 0.00 in/hr0.0 mm/hr 0.18 in4.6 mm
08:47 AM 45.3°F7.4°C 42.3°F5.7°C 89% 0.9 mph ESE1.4 kmh ESE -- 29.98 in1015.2 mb 0.00 in0.0 mm 0.00 in/hr0.0 mm/hr 0.18 in4.6 mm
08:52 AM 45.7°F7.6°C 42.6°F5.9°C 89% 0.9 mph ESE1.4 kmh ESE 0.9 mph1.4 kmh 29.98 in1015.2 mb 0.00 in0.0 mm 0.00 in/hr0.0 mm/hr 0.18 in4.6 mm
08:57 AM 45.9°F7.7°C 42.8°F6.0°C 89% 0.9 mph ENE1.4 kmh ENE 2.9 mph4.7 kmh 29.98 in1015.2 mb 0.00 in0.0 mm 0.00 in/hr0.0 mm/hr 0.18 in4.6 mm
09:02 AM 46.0°F7.8°C 43.0°F6.1°C 89% 0.9 mph SE1.4 kmh SE -- 29.98 in1015.2 mb 0.00 in0.0 mm 0.00 in/hr0.0 mm/hr 0.18 in4.6 mm
09:07 AM 46.0°F7.8°C 42.6°F5.9°C 88% 0.9 mph SE1.4 kmh SE 2.0 mph3.2 kmh 29.98 in1015.2 mb 0.00 in0.0 mm 0.00 in/hr0.0 mm/hr 0.18 in4.6 mm
09:12 AM 45.9°F7.7°C 42.3°F5.7°C 87% 0.9 mph SE1.4 kmh SE 0.9 mph1.4 kmh 29.98 in1015.2 mb 0.00 in0.0 mm 0.00 in/hr0.0 mm/hr 0.18 in4.6 mm
09:17 AM 46.0°F7.8°C 42.6°F5.9°C 88% 0.9 mph E1.4 kmh E -- 29.98 in1015.2 mb 0.00 in0.0 mm 0.00 in/hr0.0 mm/hr 0.18 in4.6 mm
09:22 AM 45.9°F7.7°C 42.3°F5.7°C 87% 0.9 mph SE1.4 kmh SE 2.0 mph3.2 kmh 29.98 in1015.2 mb 0.00 in0.0 mm 0.00 in/hr0.0 mm/hr 0.18 in4.6 mm
09:27 AM 46.0°F7.8°C 42.4°F5.8°C 87% 0.9 mph ENE1.4 kmh ENE 0.9 mph1.4 kmh 29.98 in1015.2 mb 0.00 in0.0 mm 0.00 in/hr0.0 mm/hr 0.18 in4.6 mm
09:32 AM 46.2°F7.9°C 42.6°F5.9°C 87% 0.9 mph SE1.4 kmh SE -- 29.98 in1015.2 mb 0.00 in0.0 mm 0.00 in/hr0.0 mm/hr 0.18 in4.6 mm
09:37 AM 46.2°F7.9°C 42.8°F6.0°C 88% 0.9 mph SE1.4 kmh SE -- 29.98 in1015.2 mb 0.00 in0.0 mm 0.00 in/hr0.0 mm/hr 0.18 in4.6 mm
09:42 AM 46.6°F8.1°C 43.2°F6.2°C 88% 0.9 mph NE1.4 kmh NE -- 29.98 in1015.2 mb 0.00 in0.0 mm 0.00 in/hr0.0 mm/hr 0.18 in4.6 mm
09:47 AM 46.9°F8.3°C 43.9°F6.6°C 89% 0.9 mph E1.4 kmh E 4.0 mph6.4 kmh 29.98 in1015.2 mb 0.00 in0.0 mm 0.00 in/hr0.0 mm/hr 0.18 in4.6 mm
09:52 AM 47.1°F8.4°C 43.7°F6.5°C 88% 0.9 mph E1.4 kmh E 0.9 mph1.4 kmh 29.98 in1015.2 mb 0.00 in0.0 mm 0.00 in/hr0.0 mm/hr 0.18 in4.6 mm
09:57 AM 46.9°F8.3°C 43.0°F6.1°C 86% 2.0 mph S3.2 kmh S 2.0 mph3.2 kmh 29.98 in1015.2 mb 0.00 in0.0 mm 0.00 in/hr0.0 mm/hr 0.18 in4.6 mm
10:02 AM 46.8°F8.2°C 42.4°F5.8°C 85% 2.0 mph SE3.2 kmh SE -- 29.98 in1015.2 mb 0.00 in0.0 mm 0.00 in/hr0.0 mm/hr 0.18 in4.6 mm
10:07 AM 46.9°F8.3°C 42.6°F5.9°C 85% 2.0 mph SE3.2 kmh SE 0.9 mph1.4 kmh 29.98 in1015.2 mb 0.00 in0.0 mm 0.00 in/hr0.0 mm/hr 0.18 in4.6 mm
10:12 AM 47.1°F8.4°C 42.8°F6.0°C 85% 2.0 mph SE3.2 kmh SE -- 29.98 in1015.2 mb 0.00 in0.0 mm 0.00 in/hr0.0 mm/hr 0.18 in4.6 mm
10:17 AM 47.7°F8.7°C 43.3°F6.3°C 85% 0.9 mph ESE1.4 kmh ESE 0.9 mph1.4 kmh 29.98 in1015.2 mb 0.00 in0.0 mm 0.00 in/hr0.0 mm/hr 0.18 in4.6 mm
10:22 AM 47.7°F8.7°C 42.1°F5.6°C 81% 2.9 mph SE4.7 kmh SE -- 29.98 in1015.2 mb 0.00 in0.0 mm 0.00 in/hr0.0 mm/hr 0.18 in4.6 mm
10:27 AM 47.8°F8.8°C 42.6°F5.9°C 82% 2.9 mph ESE4.7 kmh ESE -- 29.98 in1015.2 mb 0.00 in0.0 mm 0.00 in/hr0.0 mm/hr 0.18 in4.6 mm
10:32 AM 48.2°F9.0°C 43.0°F6.1°C 82% 0.9 mph SSE1.4 kmh SSE 0.9 mph1.4 kmh 29.98 in1015.2 mb 0.00 in0.0 mm 0.00 in/hr0.0 mm/hr 0.18 in4.6 mm
10:37 AM 48.4°F9.1°C 42.8°F6.0°C 81% 0.9 mph SE1.4 kmh SE 4.0 mph6.4 kmh 29.98 in1015.2 mb 0.00 in0.0 mm 0.00 in/hr0.0 mm/hr 0.18 in4.6 mm
10:42 AM 48.6°F9.2°C 42.6°F5.9°C 80% 2.0 mph ESE3.2 kmh ESE -- 29.98 in1015.2 mb 0.00 in0.0 mm 0.00 in/hr0.0 mm/hr 0.18 in4.6 mm
10:47 AM 48.6°F9.2°C 42.6°F5.9°C 80% 0.9 mph SE1.4 kmh SE -- 29.98 in1015.2 mb 0.00 in0.0 mm 0.00 in/hr0.0 mm/hr 0.18 in4.6 mm
10:52 AM 48.7°F9.3°C 43.2°F6.2°C 81% Calm Calm -- 29.98 in1015.2 mb 0.00 in0.0 mm 0.00 in/hr0.0 mm/hr 0.18 in4.6 mm
10:57 AM 48.7°F9.3°C 41.9°F5.5°C 77% 0.9 mph ESE1.4 kmh ESE 2.0 mph3.2 kmh 29.98 in1015.2 mb 0.00 in0.0 mm 0.00 in/hr0.0 mm/hr 0.18 in4.6 mm
11:02 AM 48.9°F9.4°C 42.1°F5.6°C 77% 2.0 mph SE3.2 kmh SE 0.9 mph1.4 kmh 29.98 in1015.2 mb 0.00 in0.0 mm 0.00 in/hr0.0 mm/hr 0.18 in4.6 mm
11:07 AM 49.5°F9.7°C 42.8°F6.0°C 78% 0.9 mph ESE1.4 kmh ESE 2.0 mph3.2 kmh 29.98 in1015.2 mb 0.00 in0.0 mm 0.00 in/hr0.0 mm/hr 0.18 in4.6 mm
11:12 AM 49.5°F9.7°C 42.3°F5.7°C 76% 2.0 mph ESE3.2 kmh ESE -- 29.98 in1015.2 mb 0.00 in0.0 mm 0.00 in/hr0.0 mm/hr 0.18 in4.6 mm
11:17 AM 49.5°F9.7°C 41.5°F5.3°C 74% 2.0 mph ESE3.2 kmh ESE 0.9 mph1.4 kmh 29.97 in1014.9 mb 0.00 in0.0 mm 0.00 in/hr0.0 mm/hr 0.18 in4.6 mm
11:22 AM 49.6°F9.8°C 42.1°F5.6°C 75% 2.0 mph E3.2 kmh E 0.9 mph1.4 kmh 29.98 in1015.2 mb 0.00 in0.0 mm 0.00 in/hr0.0 mm/hr 0.18 in4.6 mm
11:27 AM 49.8°F9.9°C 41.9°F5.5°C 74% 0.9 mph E1.4 kmh E 0.9 mph1.4 kmh 29.98 in1015.2 mb 0.00 in0.0 mm 0.00 in/hr0.0 mm/hr 0.18 in4.6 mm
11:32 AM 50.0°F10.0°C 42.1°F5.6°C 74% 0.9 mph SE1.4 kmh SE -- 29.97 in1014.9 mb 0.00 in0.0 mm 0.00 in/hr0.0 mm/hr 0.18 in4.6 mm
11:37 AM 50.4°F10.2°C 41.4°F5.2°C 71% 0.9 mph E1.4 kmh E -- 29.97 in1014.9 mb 0.00 in0.0 mm 0.00 in/hr0.0 mm/hr 0.18 in4.6 mm
11:42 AM 50.7°F10.4°C 42.4°F5.8°C 73% 0.9 mph E1.4 kmh E 2.0 mph3.2 kmh 29.97 in1014.9 mb 0.00 in0.0 mm 0.00 in/hr0.0 mm/hr 0.18 in4.6 mm
11:47 AM 51.1°F10.6°C 42.1°F5.6°C 71% 0.9 mph NE1.4 kmh NE -- 29.97 in1014.9 mb 0.00 in0.0 mm 0.00 in/hr0.0 mm/hr 0.18 in4.6 mm
11:52 AM 51.6°F10.9°C 42.1°F5.6°C 70% 0.9 mph SE1.4 kmh SE 0.9 mph1.4 kmh 29.97 in1014.9 mb 0.00 in0.0 mm 0.00 in/hr0.0 mm/hr 0.18 in4.6 mm
11:57 AM 51.8°F11.0°C 41.2°F5.1°C 67% 0.9 mph NW1.4 kmh NW 2.0 mph3.2 kmh 29.96 in1014.6 mb 0.00 in0.0 mm 0.00 in/hr0.0 mm/hr 0.18 in4.6 mm
12:02 PM 51.6°F10.9°C 41.0°F5.0°C 67% 0.9 mph E1.4 kmh E 0.9 mph1.4 kmh 29.96 in1014.6 mb 0.00 in0.0 mm 0.00 in/hr0.0 mm/hr 0.18 in4.6 mm
12:07 PM 51.6°F10.9°C 41.0°F5.0°C 67% 0.9 mph SW1.4 kmh SW 0.9 mph1.4 kmh 29.96 in1014.6 mb 0.00 in0.0 mm 0.00 in/hr0.0 mm/hr 0.18 in4.6 mm
12:12 PM 51.4°F10.8°C 40.8°F4.9°C 67% 2.0 mph WSW3.2 kmh WSW 4.0 mph6.4 kmh 29.96 in1014.6 mb 0.00 in0.0 mm 0.00 in/hr0.0 mm/hr 0.18 in4.6 mm
12:17 PM 50.5°F10.3°C 40.5°F4.7°C 68% 2.9 mph W4.7 kmh W 6.0 mph9.7 kmh 29.96 in1014.6 mb 0.00 in0.0 mm 0.00 in/hr0.0 mm/hr 0.18 in4.6 mm
12:22 PM 49.5°F9.7°C 40.8°F4.9°C 72% 4.0 mph W6.4 kmh W 2.0 mph3.2 kmh 29.96 in1014.6 mb 0.00 in0.0 mm 0.00 in/hr0.0 mm/hr 0.18 in4.6 mm
12:27 PM 48.7°F9.3°C 40.5°F4.7°C 73% 4.0 mph WNW6.4 kmh WNW 2.0 mph3.2 kmh 29.96 in1014.6 mb 0.00 in0.0 mm 0.00 in/hr0.0 mm/hr 0.18 in4.6 mm
12:32 PM 48.6°F9.2°C 41.4°F5.2°C 76% 2.9 mph W4.7 kmh W 2.9 mph4.7 kmh 29.96 in1014.6 mb 0.00 in0.0 mm 0.00 in/hr0.0 mm/hr 0.18 in4.6 mm
12:37 PM 48.7°F9.3°C 41.9°F5.5°C 77% 2.0 mph W3.2 kmh W 2.0 mph3.2 kmh 29.95 in1014.2 mb 0.00 in0.0 mm 0.00 in/hr0.0 mm/hr 0.18 in4.6 mm
12:42 PM 49.3°F9.6°C 42.1°F5.6°C 76% 2.0 mph W3.2 kmh W 2.9 mph4.7 kmh 29.95 in1014.2 mb 0.00 in0.0 mm 0.00 in/hr0.0 mm/hr 0.18 in4.6 mm
12:47 PM 48.9°F9.4°C 41.4°F5.2°C 75% 2.9 mph W4.7 kmh W 2.9 mph4.7 kmh 29.95 in1014.2 mb 0.00 in0.0 mm 0.00 in/hr0.0 mm/hr 0.18 in4.6 mm
12:52 PM 49.3°F9.6°C 41.7°F5.4°C 75% 2.9 mph W4.7 kmh W 2.9 mph4.7 kmh 29.95 in1014.2 mb 0.00 in0.0 mm 0.00 in/hr0.0 mm/hr 0.18 in4.6 mm
12:57 PM 49.3°F9.6°C 41.7°F5.4°C 75% 2.9 mph WNW4.7 kmh WNW 2.9 mph4.7 kmh 29.94 in1013.9 mb 0.00 in0.0 mm 0.00 in/hr0.0 mm/hr 0.18 in4.6 mm
01:02 PM 49.3°F9.6°C 41.4°F5.2°C 74% 2.9 mph W4.7 kmh W 4.0 mph6.4 kmh 29.94 in1013.9 mb 0.00 in0.0 mm 0.00 in/hr0.0 mm/hr 0.18 in4.6 mm
01:07 PM 49.1°F9.5°C 41.2°F5.1°C 74% 2.9 mph W4.7 kmh W 2.9 mph4.7 kmh 29.94 in1013.9 mb 0.00 in0.0 mm 0.00 in/hr0.0 mm/hr 0.18 in4.6 mm
01:12 PM 48.9°F9.4°C 40.6°F4.8°C 73% 2.9 mph W4.7 kmh W 2.0 mph3.2 kmh 29.94 in1013.9 mb 0.00 in0.0 mm 0.00 in/hr0.0 mm/hr 0.18 in4.6 mm
01:17 PM 49.1°F9.5°C 41.5°F5.3°C 75% 2.9 mph WNW4.7 kmh WNW 2.9 mph4.7 kmh 29.94 in1013.9 mb 0.00 in0.0 mm 0.00 in/hr0.0 mm/hr 0.18 in4.6 mm
01:22 PM 49.6°F9.8°C 42.1°F5.6°C 75% 2.9 mph W4.7 kmh W 2.9 mph4.7 kmh 29.94 in1013.9 mb 0.00 in0.0 mm 0.00 in/hr0.0 mm/hr 0.18 in4.6 mm
01:27 PM 50.2°F10.1°C 41.9°F5.5°C 73% 2.9 mph W4.7 kmh W 6.0 mph9.7 kmh 29.94 in1013.9 mb 0.00 in0.0 mm 0.00 in/hr0.0 mm/hr 0.18 in4.6 mm
01:32 PM 49.6°F9.8°C 41.7°F5.4°C 74% 2.9 mph W4.7 kmh W 2.0 mph3.2 kmh 29.94 in1013.9 mb 0.00 in0.0 mm 0.00 in/hr0.0 mm/hr 0.18 in4.6 mm
01:37 PM 49.6°F9.8°C 41.4°F5.2°C 73% 2.9 mph W4.7 kmh W 2.9 mph4.7 kmh 29.94 in1013.9 mb 0.00 in0.0 mm 0.00 in/hr0.0 mm/hr 0.18 in4.6 mm
01:42 PM 49.8°F9.9°C 41.5°F5.3°C 73% 2.9 mph WNW4.7 kmh WNW 2.0 mph3.2 kmh 29.93 in1013.5 mb 0.00 in0.0 mm 0.00 in/hr0.0 mm/hr 0.18 in4.6 mm
01:47 PM 50.2°F10.1°C 41.9°F5.5°C 73% 2.9 mph WNW4.7 kmh WNW 2.0 mph3.2 kmh 29.94 in1013.9 mb 0.00 in0.0 mm 0.00 in/hr0.0 mm/hr 0.18 in4.6 mm
01:52 PM 50.5°F10.3°C 42.6°F5.9°C 74% 2.0 mph WNW3.2 kmh WNW -- 29.93 in1013.5 mb 0.00 in0.0 mm 0.00 in/hr0.0 mm/hr 0.18 in4.6 mm
01:57 PM 50.9°F10.5°C 42.3°F5.7°C 72% 0.9 mph WNW1.4 kmh WNW -- 29.93 in1013.5 mb 0.00 in0.0 mm 0.00 in/hr0.0 mm/hr 0.18 in4.6 mm
02:02 PM 51.1°F10.6°C 42.4°F5.8°C 72% 0.9 mph WNW1.4 kmh WNW 0.9 mph1.4 kmh 29.93 in1013.5 mb 0.00 in0.0 mm 0.00 in/hr0.0 mm/hr 0.18 in4.6 mm
02:07 PM 51.1°F10.6°C 42.8°F6.0°C 73% 0.9 mph WNW1.4 kmh WNW -- 29.93 in1013.5 mb 0.00 in0.0 mm 0.00 in/hr0.0 mm/hr 0.18 in4.6 mm
02:12 PM 51.3°F10.7°C 42.6°F5.9°C 72% 0.9 mph WNW1.4 kmh WNW 0.9 mph1.4 kmh 29.93 in1013.5 mb 0.00 in0.0 mm 0.00 in/hr0.0 mm/hr 0.18 in4.6 mm
02:17 PM 51.4°F10.8°C 42.8°F6.0°C 72% 0.9 mph WNW1.4 kmh WNW 0.9 mph1.4 kmh 29.93 in1013.5 mb 0.00 in0.0 mm 0.00 in/hr0.0 mm/hr 0.18 in4.6 mm
02:22 PM 51.3°F10.7°C 42.3°F5.7°C 71% 2.0 mph W3.2 kmh W 2.9 mph4.7 kmh 29.93 in1013.5 mb 0.00 in0.0 mm 0.00 in/hr0.0 mm/hr 0.18 in4.6 mm
02:27 PM 50.5°F10.3°C 40.8°F4.9°C 69% 2.9 mph W4.7 kmh W 2.0 mph3.2 kmh 29.93 in1013.5 mb 0.00 in0.0 mm 0.00 in/hr0.0 mm/hr 0.18 in4.6 mm
02:32 PM 50.4°F10.2°C 41.4°F5.2°C 71% 2.0 mph W3.2 kmh W 2.9 mph4.7 kmh 29.93 in1013.5 mb 0.00 in0.0 mm 0.00 in/hr0.0 mm/hr 0.18 in4.6 mm
02:37 PM 50.5°F10.3°C 41.9°F5.5°C 72% 0.9 mph W1.4 kmh W -- 29.92 in1013.2 mb 0.00 in0.0 mm 0.00 in/hr0.0 mm/hr 0.18 in4.6 mm
02:42 PM 50.9°F10.5°C 43.0°F6.1°C 74% 0.9 mph W1.4 kmh W -- 29.92 in1013.2 mb 0.00 in0.0 mm 0.00 in/hr0.0 mm/hr 0.18 in4.6 mm
02:47 PM 50.9°F10.5°C 41.9°F5.5°C 71% 0.9 mph W1.4 kmh W 2.0 mph3.2 kmh 29.92 in1013.2 mb 0.00 in0.0 mm 0.00 in/hr0.0 mm/hr 0.18 in4.6 mm
02:52 PM 50.5°F10.3°C 40.5°F4.7°C 68% 2.0 mph W3.2 kmh W 2.0 mph3.2 kmh 29.92 in1013.2 mb 0.00 in0.0 mm 0.00 in/hr0.0 mm/hr 0.18 in4.6 mm
02:57 PM 50.4°F10.2°C 40.6°F4.8°C 69% 2.0 mph W3.2 kmh W 2.0 mph3.2 kmh 29.92 in1013.2 mb 0.00 in0.0 mm 0.00 in/hr0.0 mm/hr 0.18 in4.6 mm
03:02 PM 50.2°F10.1°C 40.1°F4.5°C 68% 2.0 mph W3.2 kmh W 2.0 mph3.2 kmh 29.92 in1013.2 mb 0.00 in0.0 mm 0.00 in/hr0.0 mm/hr 0.18 in4.6 mm
03:07 PM 50.2°F10.1°C 40.5°F4.7°C 69% 2.0 mph W3.2 kmh W 0.9 mph1.4 kmh 29.92 in1013.2 mb 0.00 in0.0 mm 0.00 in/hr0.0 mm/hr 0.18 in4.6 mm
03:12 PM 50.4°F10.2°C 40.6°F4.8°C 69% 2.0 mph W3.2 kmh W 2.9 mph4.7 kmh 29.91 in1012.9 mb 0.00 in0.0 mm 0.00 in/hr0.0 mm/hr 0.18 in4.6 mm
03:17 PM 50.5°F10.3°C 40.8°F4.9°C 69% 2.0 mph W3.2 kmh W 0.9 mph1.4 kmh 29.91 in1012.9 mb 0.00 in0.0 mm 0.00 in/hr0.0 mm/hr 0.18 in4.6 mm
03:22 PM 50.7°F10.4°C 40.5°F4.7°C 68% 0.9 mph W1.4 kmh W -- 29.91 in1012.9 mb 0.00 in0.0 mm 0.00 in/hr0.0 mm/hr 0.18 in4.6 mm
03:27 PM 50.7°F10.4°C 41.4°F5.2°C 70% 0.9 mph W1.4 kmh W -- 29.91 in1012.9 mb 0.00 in0.0 mm 0.00 in/hr0.0 mm/hr 0.18 in4.6 mm
03:32 PM 51.3°F10.7°C 41.4°F5.2°C 69% Calm Calm -- 29.91 in1012.9 mb 0.00 in0.0 mm 0.00 in/hr0.0 mm/hr 0.18 in4.6 mm
03:37 PM 51.3°F10.7°C 40.6°F4.8°C 67% Calm Calm 0.9 mph1.4 kmh 29.91 in1012.9 mb 0.00 in0.0 mm 0.00 in/hr0.0 mm/hr 0.18 in4.6 mm
03:42 PM 51.3°F10.7°C 40.6°F4.8°C 67% Calm Calm 0.9 mph1.4 kmh 29.90 in1012.5 mb 0.00 in0.0 mm 0.00 in/hr0.0 mm/hr 0.18 in4.6 mm
03:47 PM 51.3°F10.7°C 41.0°F5.0°C 68% Calm Calm -- 29.90 in1012.5 mb 0.00 in0.0 mm 0.00 in/hr0.0 mm/hr 0.18 in4.6 mm
03:52 PM 51.8°F11.0°C 41.9°F5.5°C 69% Calm Calm -- 29.90 in1012.5 mb 0.00 in0.0 mm 0.00 in/hr0.0 mm/hr 0.18 in4.6 mm
03:57 PM 52.0°F11.1°C 41.4°F5.2°C 67% 0.9 mph W1.4 kmh W 2.0 mph3.2 kmh 29.90 in1012.5 mb 0.00 in0.0 mm 0.00 in/hr0.0 mm/hr 0.18 in4.6 mm
04:02 PM 51.8°F11.0°C 40.8°F4.9°C 66% 0.9 mph W1.4 kmh W 2.0 mph3.2 kmh 29.89 in1012.2 mb 0.00 in0.0 mm 0.00 in/hr0.0 mm/hr 0.18 in4.6 mm
04:07 PM 51.8°F11.0°C 40.5°F4.7°C 65% 0.9 mph W1.4 kmh W 0.9 mph1.4 kmh 29.89 in1012.2 mb 0.00 in0.0 mm 0.00 in/hr0.0 mm/hr 0.18 in4.6 mm
04:12 PM 51.6°F10.9°C 39.9°F4.4°C 64% 2.0 mph W3.2 kmh W 6.0 mph9.7 kmh 29.88 in1011.9 mb 0.00 in0.0 mm 0.00 in/hr0.0 mm/hr 0.18 in4.6 mm
04:17 PM 51.6°F10.9°C 39.9°F4.4°C 64% 4.0 mph W6.4 kmh W 6.0 mph9.7 kmh 29.88 in1011.9 mb 0.00 in0.0 mm 0.00 in/hr0.0 mm/hr 0.18 in4.6 mm
04:22 PM 51.8°F11.0°C 40.8°F4.9°C 66% 4.0 mph W6.4 kmh W 4.0 mph6.4 kmh 29.88 in1011.9 mb 0.00 in0.0 mm 0.00 in/hr0.0 mm/hr 0.18 in4.6 mm
04:27 PM 52.2°F11.2°C 40.8°F4.9°C 65% 2.9 mph W4.7 kmh W 4.0 mph6.4 kmh 29.88 in1011.9 mb 0.00 in0.0 mm 0.00 in/hr0.0 mm/hr 0.18 in4.6 mm
04:32 PM 52.3°F11.3°C 41.7°F5.4°C 67% 2.0 mph WNW3.2 kmh WNW 2.0 mph3.2 kmh 29.88 in1011.9 mb 0.00 in0.0 mm 0.00 in/hr0.0 mm/hr 0.18 in4.6 mm
04:37 PM 52.5°F11.4°C 41.5°F5.3°C 66% 2.0 mph WNW3.2 kmh WNW -- 29.87 in1011.5 mb 0.00 in0.0 mm 0.00 in/hr0.0 mm/hr 0.18 in4.6 mm
04:42 PM 52.9°F11.6°C 41.4°F5.2°C 65% 2.0 mph WNW3.2 kmh WNW 2.0 mph3.2 kmh 29.87 in1011.5 mb 0.00 in0.0 mm 0.00 in/hr0.0 mm/hr 0.18 in4.6 mm
04:47 PM 53.1°F11.7°C 39.9°F4.4°C 61% 2.0 mph WNW3.2 kmh WNW -- 29.87 in1011.5 mb 0.00 in0.0 mm 0.00 in/hr0.0 mm/hr 0.18 in4.6 mm
04:52 PM 53.2°F11.8°C 41.0°F5.0°C 63% 0.9 mph WNW1.4 kmh WNW 0.9 mph1.4 kmh 29.87 in1011.5 mb 0.00 in0.0 mm 0.00 in/hr0.0 mm/hr 0.18 in4.6 mm
04:57 PM 53.4°F11.9°C 41.5°F5.3°C 64% 2.0 mph W3.2 kmh W 6.0 mph9.7 kmh 29.87 in1011.5 mb 0.00 in0.0 mm 0.00 in/hr0.0 mm/hr 0.18 in4.6 mm
05:02 PM 53.1°F11.7°C 40.8°F4.9°C 63% 2.9 mph W4.7 kmh W 2.0 mph3.2 kmh 29.87 in1011.5 mb 0.00 in0.0 mm 0.00 in/hr0.0 mm/hr 0.18 in4.6 mm
05:07 PM 53.1°F11.7°C 39.9°F4.4°C 61% 4.0 mph WSW6.4 kmh WSW 6.0 mph9.7 kmh 29.87 in1011.5 mb 0.00 in0.0 mm 0.00 in/hr0.0 mm/hr 0.09 in2.3 mm
05:12 PM 52.9°F11.6°C 41.4°F5.2°C 65% 2.9 mph WSW4.7 kmh WSW 0.9 mph1.4 kmh 29.86 in1011.2 mb 0.00 in0.0 mm 0.00 in/hr0.0 mm/hr 0.09 in2.3 mm
05:17 PM 52.9°F11.6°C 41.0°F5.0°C 64% 2.0 mph WSW3.2 kmh WSW 4.9 mph7.9 kmh 29.86 in1011.2 mb 0.00 in0.0 mm 0.00 in/hr0.0 mm/hr 0.09 in2.3 mm
05:22 PM 52.9°F11.6°C 41.0°F5.0°C 64% 2.9 mph WSW4.7 kmh WSW 4.0 mph6.4 kmh 29.86 in1011.2 mb 0.00 in0.0 mm 0.00 in/hr0.0 mm/hr 0.09 in2.3 mm
05:27 PM 52.5°F11.4°C 42.3°F5.7°C 68% 2.9 mph WSW4.7 kmh WSW 0.9 mph1.4 kmh 29.86 in1011.2 mb 0.00 in0.0 mm 0.00 in/hr0.0 mm/hr 0.09 in2.3 mm
05:32 PM 52.3°F11.3°C 41.0°F5.0°C 65% 2.9 mph WSW4.7 kmh WSW 0.9 mph1.4 kmh 29.86 in1011.2 mb 0.00 in0.0 mm 0.00 in/hr0.0 mm/hr 0.09 in2.3 mm
05:37 PM 52.5°F11.4°C 41.9°F5.5°C 67% 2.9 mph WSW4.7 kmh WSW 2.9 mph4.7 kmh 29.86 in1011.2 mb 0.00 in0.0 mm 0.00 in/hr0.0 mm/hr 0.09 in2.3 mm
05:42 PM 52.5°F11.4°C 41.9°F5.5°C 67% 2.9 mph WSW4.7 kmh WSW 2.0 mph3.2 kmh 29.86 in1011.2 mb 0.00 in0.0 mm 0.00 in/hr0.0 mm/hr 0.09 in2.3 mm
05:47 PM 52.7°F11.5°C 40.5°F4.7°C 63% 2.9 mph WSW4.7 kmh WSW 2.0 mph3.2 kmh 29.85 in1010.8 mb 0.00 in0.0 mm 0.00 in/hr0.0 mm/hr 0.09 in2.3 mm
05:52 PM 52.9°F11.6°C 40.3°F4.6°C 62% 2.9 mph WSW4.7 kmh WSW 2.0 mph3.2 kmh 29.85 in1010.8 mb 0.00 in0.0 mm 0.00 in/hr0.0 mm/hr 0.09 in2.3 mm
05:57 PM 52.9°F11.6°C 40.6°F4.8°C 63% 2.9 mph WSW4.7 kmh WSW 0.9 mph1.4 kmh 29.85 in1010.8 mb 0.00 in0.0 mm 0.00 in/hr0.0 mm/hr 0.09 in2.3 mm
06:02 PM 52.7°F11.5°C 40.1°F4.5°C 62% 2.9 mph WSW4.7 kmh WSW 2.9 mph4.7 kmh 29.85 in1010.8 mb 0.00 in0.0 mm 0.00 in/hr0.0 mm/hr 0.09 in2.3 mm
06:07 PM 52.7°F11.5°C 40.8°F4.9°C 64% 2.0 mph WSW3.2 kmh WSW 2.0 mph3.2 kmh 29.85 in1010.8 mb 0.00 in0.0 mm 0.00 in/hr0.0 mm/hr 0.09 in2.3 mm
06:12 PM 52.5°F11.4°C 41.2°F5.1°C 65% 2.0 mph WSW3.2 kmh WSW 0.9 mph1.4 kmh 29.85 in1010.8 mb 0.00 in0.0 mm 0.00 in/hr0.0 mm/hr 0.09 in2.3 mm
06:17 PM 52.5°F11.4°C 40.6°F4.8°C 64% 0.9 mph WSW1.4 kmh WSW 0.9 mph1.4 kmh 29.85 in1010.8 mb 0.00 in0.0 mm 0.00 in/hr0.0 mm/hr 0.09 in2.3 mm
06:22 PM 52.5°F11.4°C 41.5°F5.3°C 66% 0.9 mph WSW1.4 kmh WSW 2.0 mph3.2 kmh 29.84 in1010.5 mb 0.00 in0.0 mm 0.00 in/hr0.0 mm/hr 0.09 in2.3 mm
06:27 PM 52.5°F11.4°C 41.5°F5.3°C 66% 2.0 mph WSW3.2 kmh WSW -- 29.84 in1010.5 mb 0.00 in0.0 mm 0.00 in/hr0.0 mm/hr 0.09 in2.3 mm
06:32 PM 52.5°F11.4°C 41.2°F5.1°C 65% 0.9 mph WSW1.4 kmh WSW -- 29.84 in1010.5 mb 0.00 in0.0 mm 0.00 in/hr0.0 mm/hr 0.09 in2.3 mm
06:37 PM 52.5°F11.4°C 41.2°F5.1°C 65% 0.9 mph WSW1.4 kmh WSW 0.9 mph1.4 kmh 29.84 in1010.5 mb 0.00 in0.0 mm 0.00 in/hr0.0 mm/hr 0.09 in2.3 mm
06:42 PM 52.5°F11.4°C 39.9°F4.4°C 62% 0.9 mph WSW1.4 kmh WSW 2.0 mph3.2 kmh 29.84 in1010.5 mb 0.00 in0.0 mm 0.00 in/hr0.0 mm/hr 0.09 in2.3 mm
06:47 PM 52.7°F11.5°C 39.6°F4.2°C 61% 0.9 mph WSW1.4 kmh WSW 0.9 mph1.4 kmh 29.84 in1010.5 mb 0.00 in0.0 mm 0.00 in/hr0.0 mm/hr 0.09 in2.3 mm
06:52 PM 52.9°F11.6°C 41.0°F5.0°C 64% 0.9 mph WSW1.4 kmh WSW -- 29.84 in1010.5 mb 0.00 in0.0 mm 0.00 in/hr0.0 mm/hr 0.09 in2.3 mm
06:57 PM 52.7°F11.5°C 41.2°F5.1°C 65% 0.9 mph WSW1.4 kmh WSW 0.9 mph1.4 kmh 29.84 in1010.5 mb 0.00 in0.0 mm 0.00 in/hr0.0 mm/hr 0.09 in2.3 mm
07:02 PM 52.5°F11.4°C 40.6°F4.8°C 64% 0.9 mph WSW1.4 kmh WSW 0.9 mph1.4 kmh 29.83 in1010.2 mb 0.00 in0.0 mm 0.00 in/hr0.0 mm/hr 0.09 in2.3 mm
07:07 PM 52.5°F11.4°C 40.6°F4.8°C 64% 0.9 mph WSW1.4 kmh WSW -- 29.83 in1010.2 mb 0.00 in0.0 mm 0.00 in/hr0.0 mm/hr 0.09 in2.3 mm
07:12 PM 52.7°F11.5°C 41.2°F5.1°C 65% Calm Calm -- 29.83 in1010.2 mb 0.00 in0.0 mm 0.00 in/hr0.0 mm/hr 0.09 in2.3 mm
07:17 PM 52.9°F11.6°C 41.0°F5.0°C 64% Calm Calm -- 29.83 in1010.2 mb 0.00 in0.0 mm 0.00 in/hr0.0 mm/hr 0.09 in2.3 mm
07:22 PM 53.1°F11.7°C 41.5°F5.3°C 65% Calm Calm -- 29.83 in1010.2 mb 0.00 in0.0 mm 0.00 in/hr0.0 mm/hr 0.09 in2.3 mm
07:27 PM 53.4°F11.9°C 41.5°F5.3°C 64% Calm Calm -- 29.83 in1010.2 mb 0.00 in0.0 mm 0.00 in/hr0.0 mm/hr 0.09 in2.3 mm
07:32 PM 53.8°F12.1°C 42.3°F5.7°C 65% Calm Calm -- 29.82 in1009.8 mb 0.00 in0.0 mm 0.00 in/hr0.0 mm/hr 0.09 in2.3 mm
07:37 PM 53.8°F12.1°C 41.9°F5.5°C 64% Calm Calm -- 29.82 in1009.8 mb 0.00 in0.0 mm 0.00 in/hr0.0 mm/hr 0.09 in2.3 mm
07:42 PM 53.8°F12.1°C 41.5°F5.3°C 63% Calm Calm -- 29.82 in1009.8 mb 0.00 in0.0 mm 0.00 in/hr0.0 mm/hr 0.09 in2.3 mm
07:47 PM 53.6°F12.0°C 41.4°F5.2°C 63% Calm Calm -- 29.81 in1009.5 mb 0.00 in0.0 mm 0.00 in/hr0.0 mm/hr 0.09 in2.3 mm
07:52 PM 53.6°F12.0°C 42.4°F5.8°C 66% Calm Calm -- 29.81 in1009.5 mb 0.00 in0.0 mm 0.00 in/hr0.0 mm/hr 0.09 in2.3 mm
07:57 PM 54.0°F12.2°C 42.8°F6.0°C 66% Calm Calm -- 29.81 in1009.5 mb 0.00 in0.0 mm 0.00 in/hr0.0 mm/hr 0.09 in2.3 mm
08:02 PM 54.0°F12.2°C 41.7°F5.4°C 63% Calm Calm -- 29.81 in1009.5 mb 0.00 in0.0 mm 0.00 in/hr0.0 mm/hr 0.09 in2.3 mm
08:07 PM 54.0°F12.2°C 42.1°F5.6°C 64% Calm Calm -- 29.81 in1009.5 mb 0.00 in0.0 mm 0.00 in/hr0.0 mm/hr 0.09 in2.3 mm
08:12 PM 54.1°F12.3°C 42.6°F5.9°C 65% Calm Calm -- 29.81 in1009.5 mb 0.00 in0.0 mm 0.00 in/hr0.0 mm/hr 0.09 in2.3 mm
08:17 PM 54.3°F12.4°C 42.8°F6.0°C 65% Calm Calm -- 29.81 in1009.5 mb 0.00 in0.0 mm 0.00 in/hr0.0 mm/hr 0.09 in2.3 mm
08:22 PM 54.1°F12.3°C 42.6°F5.9°C 65% Calm Calm -- 29.80 in1009.1 mb 0.00 in0.0 mm 0.00 in/hr0.0 mm/hr 0.09 in2.3 mm
08:27 PM 53.8°F12.1°C 41.5°F5.3°C 63% Calm Calm 2.0 mph3.2 kmh 29.80 in1009.1 mb 0.00 in0.0 mm 0.00 in/hr0.0 mm/hr 0.09 in2.3 mm
08:32 PM 53.1°F11.7°C 40.8°F4.9°C 63% 0.9 mph SSE1.4 kmh SSE 0.9 mph1.4 kmh 29.80 in1009.1 mb 0.00 in0.0 mm 0.00 in/hr0.0 mm/hr 0.09 in2.3 mm
08:37 PM 52.5°F11.4°C 41.9°F5.5°C 67% 0.9 mph SSE1.4 kmh SSE -- 29.80 in1009.1 mb 0.00 in0.0 mm 0.00 in/hr0.0 mm/hr 0.09 in2.3 mm
08:42 PM 52.7°F11.5°C 42.4°F5.8°C 68% Calm Calm -- 29.80 in1009.1 mb 0.00 in0.0 mm 0.00 in/hr0.0 mm/hr 0.09 in2.3 mm
08:47 PM 52.9°F11.6°C 42.6°F5.9°C 68% Calm Calm -- 29.80 in1009.1 mb 0.00 in0.0 mm 0.00 in/hr0.0 mm/hr 0.09 in2.3 mm
08:52 PM 53.2°F11.8°C 42.6°F5.9°C 67% Calm Calm -- 29.80 in1009.1 mb 0.00 in0.0 mm 0.00 in/hr0.0 mm/hr 0.09 in2.3 mm
08:57 PM 53.2°F11.8°C 41.7°F5.4°C 65% Calm Calm -- 29.80 in1009.1 mb 0.00 in0.0 mm 0.00 in/hr0.0 mm/hr 0.09 in2.3 mm
09:02 PM 52.7°F11.5°C 41.2°F5.1°C 65% Calm Calm 2.0 mph3.2 kmh 29.80 in1009.1 mb 0.00 in0.0 mm 0.00 in/hr0.0 mm/hr 0.09 in2.3 mm
09:07 PM 52.0°F11.1°C 40.6°F4.8°C 65% 0.9 mph SSE1.4 kmh SSE 0.9 mph1.4 kmh 29.80 in1009.1 mb 0.00 in0.0 mm 0.00 in/hr0.0 mm/hr 0.09 in2.3 mm
09:12 PM 51.4°F10.8°C 40.1°F4.5°C 65% 2.0 mph SE3.2 kmh SE 2.9 mph4.7 kmh 29.80 in1009.1 mb 0.00 in0.0 mm 0.00 in/hr0.0 mm/hr 0.09 in2.3 mm
09:17 PM 51.3°F10.7°C 40.3°F4.6°C 66% 2.0 mph SE3.2 kmh SE 0.9 mph1.4 kmh 29.80 in1009.1 mb 0.00 in0.0 mm 0.00 in/hr0.0 mm/hr 0.09 in2.3 mm
09:22 PM 51.1°F10.6°C 40.5°F4.7°C 67% 2.0 mph ESE3.2 kmh ESE 2.0 mph3.2 kmh 29.80 in1009.1 mb 0.00 in0.0 mm 0.00 in/hr0.0 mm/hr 0.09 in2.3 mm
09:27 PM 50.7°F10.4°C 41.7°F5.4°C 71% 2.9 mph ESE4.7 kmh ESE 0.9 mph1.4 kmh 29.80 in1009.1 mb 0.00 in0.0 mm 0.00 in/hr0.0 mm/hr 0.09 in2.3 mm
09:32 PM 50.4°F10.2°C 41.7°F5.4°C 72% 2.0 mph ESE3.2 kmh ESE -- 29.79 in1008.8 mb 0.00 in0.0 mm 0.00 in/hr0.0 mm/hr 0.09 in2.3 mm
09:37 PM 50.5°F10.3°C 41.9°F5.5°C 72% Calm Calm -- 29.79 in1008.8 mb 0.00 in0.0 mm 0.00 in/hr0.0 mm/hr 0.09 in2.3 mm
09:42 PM 50.7°F10.4°C 41.7°F5.4°C 71% 0.9 mph ESE1.4 kmh ESE 2.0 mph3.2 kmh 29.79 in1008.8 mb 0.00 in0.0 mm 0.00 in/hr0.0 mm/hr 0.09 in2.3 mm
09:47 PM 50.7°F10.4°C 41.4°F5.2°C 70% 2.0 mph ESE3.2 kmh ESE 2.0 mph3.2 kmh 29.79 in1008.8 mb 0.00 in0.0 mm 0.00 in/hr0.0 mm/hr 0.09 in2.3 mm
09:52 PM 50.7°F10.4°C 42.1°F5.6°C 72% 2.0 mph ESE3.2 kmh ESE 2.0 mph3.2 kmh 29.79 in1008.8 mb 0.00 in0.0 mm 0.00 in/hr0.0 mm/hr 0.09 in2.3 mm
09:57 PM 50.5°F10.3°C 41.2°F5.1°C 70% 2.0 mph ESE3.2 kmh ESE 2.0 mph3.2 kmh 29.79 in1008.8 mb 0.00 in0.0 mm 0.00 in/hr0.0 mm/hr 0.09 in2.3 mm
10:02 PM 50.5°F10.3°C 41.9°F5.5°C 72% 2.0 mph ESE3.2 kmh ESE 2.9 mph4.7 kmh 29.79 in1008.8 mb 0.00 in0.0 mm 0.00 in/hr0.0 mm/hr 0.09 in2.3 mm
10:07 PM 50.4°F10.2°C 41.7°F5.4°C 72% 2.0 mph ESE3.2 kmh ESE 0.9 mph1.4 kmh 29.79 in1008.8 mb 0.00 in0.0 mm 0.00 in/hr0.0 mm/hr 0.09 in2.3 mm
10:12 PM 50.2°F10.1°C 41.9°F5.5°C 73% 2.0 mph ESE3.2 kmh ESE 2.9 mph4.7 kmh 29.78 in1008.5 mb 0.00 in0.0 mm 0.00 in/hr0.0 mm/hr 0.09 in2.3 mm
10:17 PM 50.0°F10.0°C 41.7°F5.4°C 73% 2.9 mph ESE4.7 kmh ESE 2.0 mph3.2 kmh 29.78 in1008.5 mb 0.00 in0.0 mm 0.00 in/hr0.0 mm/hr 0.09 in2.3 mm
10:22 PM 49.8°F9.9°C 41.5°F5.3°C 73% 2.9 mph ESE4.7 kmh ESE 2.0 mph3.2 kmh 29.78 in1008.5 mb 0.00 in0.0 mm 0.00 in/hr0.0 mm/hr 0.09 in2.3 mm
10:27 PM 49.8°F9.9°C 41.5°F5.3°C 73% 2.0 mph ESE3.2 kmh ESE 2.0 mph3.2 kmh 29.78 in1008.5 mb 0.00 in0.0 mm 0.00 in/hr0.0 mm/hr 0.09 in2.3 mm
10:32 PM 50.0°F10.0°C 42.8°F6.0°C 76% 0.9 mph ESE1.4 kmh ESE 0.9 mph1.4 kmh 29.78 in1008.5 mb 0.00 in0.0 mm 0.00 in/hr0.0 mm/hr 0.09 in2.3 mm
10:37 PM 50.2°F10.1°C 43.5°F6.4°C 78% 0.9 mph ESE1.4 kmh ESE -- 29.78 in1008.5 mb 0.00 in0.0 mm 0.00 in/hr0.0 mm/hr 0.09 in2.3 mm
10:42 PM 50.2°F10.1°C 43.3°F6.3°C 77% Calm Calm -- 29.78 in1008.5 mb 0.00 in0.0 mm 0.00 in/hr0.0 mm/hr 0.09 in2.3 mm
10:47 PM 50.2°F10.1°C 43.3°F6.3°C 77% Calm Calm -- 29.77 in1008.1 mb 0.00 in0.0 mm 0.00 in/hr0.0 mm/hr 0.09 in2.3 mm
10:52 PM 50.2°F10.1°C 43.9°F6.6°C 79% Calm Calm 0.9 mph1.4 kmh 29.78 in1008.5 mb 0.00 in0.0 mm 0.00 in/hr0.0 mm/hr 0.09 in2.3 mm
10:57 PM 49.8°F9.9°C 43.0°F6.1°C 77% Calm Calm -- 29.77 in1008.1 mb 0.00 in0.0 mm 0.00 in/hr0.0 mm/hr 0.09 in2.3 mm
11:02 PM 49.8°F9.9°C 43.5°F6.4°C 79% Calm Calm -- 29.77 in1008.1 mb 0.00 in0.0 mm 0.00 in/hr0.0 mm/hr 0.09 in2.3 mm
11:07 PM 49.6°F9.8°C 43.3°F6.3°C 79% Calm Calm -- 29.77 in1008.1 mb 0.00 in0.0 mm 0.00 in/hr0.0 mm/hr 0.09 in2.3 mm
11:12 PM 49.5°F9.7°C 43.5°F6.4°C 80% Calm Calm -- 29.76 in1007.8 mb 0.00 in0.0 mm 0.00 in/hr0.0 mm/hr 0.09 in2.3 mm
11:17 PM 49.3°F9.6°C 43.0°F6.1°C 79% Calm Calm -- 29.76 in1007.8 mb 0.00 in0.0 mm 0.00 in/hr0.0 mm/hr 0.09 in2.3 mm
11:22 PM 49.6°F9.8°C 43.7°F6.5°C 80% Calm Calm -- 29.76 in1007.8 mb 0.00 in0.0 mm 0.00 in/hr0.0 mm/hr 0.09 in2.3 mm
11:27 PM 49.6°F9.8°C 43.7°F6.5°C 80% Calm Calm -- 29.76 in1007.8 mb 0.00 in0.0 mm 0.00 in/hr0.0 mm/hr 0.09 in2.3 mm
11:32 PM 49.8°F9.9°C 43.5°F6.4°C 79% Calm Calm -- 29.76 in1007.8 mb 0.00 in0.0 mm 0.00 in/hr0.0 mm/hr 0.09 in2.3 mm
11:37 PM 49.8°F9.9°C 43.2°F6.2°C 78% Calm Calm -- 29.76 in1007.8 mb 0.00 in0.0 mm 0.00 in/hr0.0 mm/hr 0.09 in2.3 mm
11:42 PM 49.6°F9.8°C 42.8°F6.0°C 77% Calm Calm -- 29.75 in1007.5 mb 0.00 in0.0 mm 0.00 in/hr0.0 mm/hr 0.09 in2.3 mm
11:47 PM 49.5°F9.7°C 42.8°F6.0°C 78% Calm Calm -- 29.75 in1007.5 mb 0.00 in0.0 mm 0.00 in/hr0.0 mm/hr 0.09 in2.3 mm
11:52 PM 49.5°F9.7°C 43.5°F6.4°C 80% Calm Calm -- 29.75 in1007.5 mb 0.00 in0.0 mm 0.00 in/hr0.0 mm/hr 0.09 in2.3 mm
11:57 PM 49.5°F9.7°C 43.5°F6.4°C 80% Calm Calm -- 29.75 in1007.5 mb 0.00 in0.0 mm 0.00 in/hr0.0 mm/hr 0.09 in2.3 mm